sensor_id;sensor_type;location;lat;lon;timestamp;pressure;altitude;pressure_sealevel;temperature;humidity
21182;BME280;10749;46.296;7.524;2023-04-05T00:00:51;94889.41;;;8.14;34.86
21182;BME280;10749;46.296;7.524;2023-04-05T00:03:18;94894.69;;;7.98;35.14
21182;BME280;10749;46.296;7.524;2023-04-05T00:05:44;94897.97;;;8.00;34.95
21182;BME280;10749;46.296;7.524;2023-04-05T00:08:10;94899.28;;;8.04;35.27
21182;BME280;10749;46.296;7.524;2023-04-05T00:10:48;94892.38;;;8.03;35.07
21182;BME280;10749;46.296;7.524;2023-04-05T00:13:14;94889.69;;;7.95;35.33
21182;BME280;10749;46.296;7.524;2023-04-05T00:15:40;94900.25;;;7.95;35.10
21182;BME280;10749;46.296;7.524;2023-04-05T00:18:05;94904.38;;;7.98;35.15
21182;BME280;10749;46.296;7.524;2023-04-05T00:20:31;94902.94;;;8.03;35.20
21182;BME280;10749;46.296;7.524;2023-04-05T00:22:57;94900.94;;;8.05;35.33
21182;BME280;10749;46.296;7.524;2023-04-05T00:25:23;94899.28;;;8.04;35.19
21182;BME280;10749;46.296;7.524;2023-04-05T00:27:48;94902.59;;;7.98;35.36
21182;BME280;10749;46.296;7.524;2023-04-05T00:30:13;94896.63;;;7.88;35.57
21182;BME280;10749;46.296;7.524;2023-04-05T00:32:47;94901.25;;;7.86;35.24
21182;BME280;10749;46.296;7.524;2023-04-05T00:35:12;94904.88;;;7.93;35.42
21182;BME280;10749;46.296;7.524;2023-04-05T00:37:37;94898.63;;;7.94;35.34
21182;BME280;10749;46.296;7.524;2023-04-05T00:40:03;94904.72;;;7.95;35.20
21182;BME280;10749;46.296;7.524;2023-04-05T00:42:29;94904.53;;;7.96;35.11
21182;BME280;10749;46.296;7.524;2023-04-05T00:44:54;94902.59;;;7.98;35.33
21182;BME280;10749;46.296;7.524;2023-04-05T00:47:19;94900.78;;;7.99;35.20
21182;BME280;10749;46.296;7.524;2023-04-05T00:49:45;94905.22;;;7.98;35.35
21182;BME280;10749;46.296;7.524;2023-04-05T00:52:10;94901.59;;;7.99;35.50
21182;BME280;10749;46.296;7.524;2023-04-05T00:54:37;94900.94;;;7.97;35.28
21182;BME280;10749;46.296;7.524;2023-04-05T00:57:03;94897.59;;;7.87;35.50
21182;BME280;10749;46.296;7.524;2023-04-05T00:59:30;94896.28;;;7.83;35.48
21182;BME280;10749;46.296;7.524;2023-04-05T01:02:12;94893.94;;;7.72;35.69
21182;BME280;10749;46.296;7.524;2023-04-05T01:04:46;94894.94;;;7.71;35.90
21182;BME280;10749;46.296;7.524;2023-04-05T01:09:56;94887.22;;;7.69;35.74
21182;BME280;10749;46.296;7.524;2023-04-05T01:12:23;94892.94;;;7.65;35.72
21182;BME280;10749;46.296;7.524;2023-04-05T01:14:52;94892.94;;;7.65;36.08
21182;BME280;10749;46.296;7.524;2023-04-05T01:17:19;94889.84;;;7.69;35.72
21182;BME280;10749;46.296;7.524;2023-04-05T01:19:48;94891.66;;;7.69;35.70
21182;BME280;10749;46.296;7.524;2023-04-05T01:30:40;94887.94;;;7.46;36.18
21182;BME280;10749;46.296;7.524;2023-04-05T01:35:58;94895.31;;;7.34;36.13
21182;BME280;10749;46.296;7.524;2023-04-05T01:38:26;94888.91;;;7.36;36.44
21182;BME280;10749;46.296;7.524;2023-04-05T01:40:53;94889.53;;;7.30;36.24
21182;BME280;10749;46.296;7.524;2023-04-05T01:43:18;94896.78;;;7.28;36.45
21182;BME280;10749;46.296;7.524;2023-04-05T01:45:45;94893.16;;;7.29;36.36
21182;BME280;10749;46.296;7.524;2023-04-05T01:48:11;94890.38;;;7.31;36.15
21182;BME280;10749;46.296;7.524;2023-04-05T01:50:37;94894.81;;;7.30;36.27
21182;BME280;10749;46.296;7.524;2023-04-05T01:53:02;94891.34;;;7.30;36.65
21182;BME280;10749;46.296;7.524;2023-04-05T01:55:27;94887.88;;;7.29;36.67
21182;BME280;10749;46.296;7.524;2023-04-05T01:57:54;94890.69;;;7.28;36.46
21182;BME280;10749;46.296;7.524;2023-04-05T02:00:20;94893.78;;;7.23;36.59
21182;BME280;10749;46.296;7.524;2023-04-05T02:02:46;94885.72;;;7.25;36.57
21182;BME280;10749;46.296;7.524;2023-04-05T02:05:11;94894.94;;;7.29;36.89
21182;BME280;10749;46.296;7.524;2023-04-05T02:07:36;94893.97;;;7.30;36.71
21182;BME280;10749;46.296;7.524;2023-04-05T02:10:02;94895.28;;;7.26;36.69
21182;BME280;10749;46.296;7.524;2023-04-05T02:12:28;94899.41;;;7.28;36.91
21182;BME280;10749;46.296;7.524;2023-04-05T02:14:54;94896.09;;;7.26;37.00
21182;BME280;10749;46.296;7.524;2023-04-05T02:17:19;94894.28;;;7.27;36.64
21182;BME280;10749;46.296;7.524;2023-04-05T02:19:45;94900.72;;;7.24;36.76
21182;BME280;10749;46.296;7.524;2023-04-05T02:22:12;94897.41;;;7.22;37.03
21182;BME280;10749;46.296;7.524;2023-04-05T02:24:37;94892.47;;;7.19;36.77
21182;BME280;10749;46.296;7.524;2023-04-05T02:27:02;94894.78;;;7.22;37.06
21182;BME280;10749;46.296;7.524;2023-04-05T02:29:28;94895.06;;;7.11;37.34
21182;BME280;10749;46.296;7.524;2023-04-05T02:31:53;94892.72;;;7.08;36.96
21182;BME280;10749;46.296;7.524;2023-04-05T02:34:18;94892.41;;;7.11;37.26
21182;BME280;10749;46.296;7.524;2023-04-05T02:36:44;94890.09;;;7.08;37.20
21182;BME280;10749;46.296;7.524;2023-04-05T02:39:09;94894.06;;;7.12;36.89
21182;BME280;10749;46.296;7.524;2023-04-05T02:41:35;94889.47;;;7.14;36.96
21182;BME280;10749;46.296;7.524;2023-04-05T02:44:01;94887.66;;;7.15;37.08
21182;BME280;10749;46.296;7.524;2023-04-05T02:46:26;94888.13;;;7.10;37.31
21182;BME280;10749;46.296;7.524;2023-04-05T02:48:51;94890.75;;;7.10;37.17
21182;BME280;10749;46.296;7.524;2023-04-05T02:51:17;94891.13;;;7.15;37.41
21182;BME280;10749;46.296;7.524;2023-04-05T02:53:42;94895.09;;;7.19;37.07
21182;BME280;10749;46.296;7.524;2023-04-05T02:56:09;94886.69;;;7.16;37.24
21182;BME280;10749;46.296;7.524;2023-04-05T02:58:35;94892.25;;;7.13;37.39
21182;BME280;10749;46.296;7.524;2023-04-05T03:01:01;94889.09;;;7.09;37.52
21182;BME280;10749;46.296;7.524;2023-04-05T03:03:32;94886.78;;;7.06;37.51
21182;BME280;10749;46.296;7.524;2023-04-05T03:06:04;94893.72;;;7.07;37.63
21182;BME280;10749;46.296;7.524;2023-04-05T03:08:37;94895.34;;;7.08;37.25
21182;BME280;10749;46.296;7.524;2023-04-05T03:11:06;94896.97;;;7.01;37.47
21182;BME280;10749;46.296;7.524;2023-04-05T03:13:31;94896.97;;;7.01;37.92
21182;BME280;10749;46.296;7.524;2023-04-05T03:15:56;94893.63;;;6.91;37.85
21182;BME280;10749;46.296;7.524;2023-04-05T03:18:22;94899.81;;;6.82;37.76
21182;BME280;10749;46.296;7.524;2023-04-05T03:20:50;94899.59;;;6.75;37.82
21182;BME280;10749;46.296;7.524;2023-04-05T03:23:21;94901.72;;;6.72;37.96
21182;BME280;10749;46.296;7.524;2023-04-05T03:26:01;94904.53;;;6.70;37.79
21182;BME280;10749;46.296;7.524;2023-04-05T03:28:28;94904.63;;;6.61;38.05
21182;BME280;10749;46.296;7.524;2023-04-05T03:30:54;94899.22;;;6.62;37.95
21182;BME280;10749;46.296;7.524;2023-04-05T03:33:19;94896.28;;;6.65;37.99
21182;BME280;10749;46.296;7.524;2023-04-05T03:35:45;94898.44;;;6.70;38.06
21182;BME280;10749;46.296;7.524;2023-04-05T03:38:11;94902.50;;;6.64;37.91
21182;BME280;10749;46.296;7.524;2023-04-05T03:40:37;94900.66;;;6.57;38.31
21182;BME280;10749;46.296;7.524;2023-04-05T03:43:02;94905.06;;;6.56;38.24
21182;BME280;10749;46.296;7.524;2023-04-05T03:45:27;94911.16;;;6.57;38.22
21182;BME280;10749;46.296;7.524;2023-04-05T03:47:56;94903.53;;;6.45;38.19
21182;BME280;10749;46.296;7.524;2023-04-05T03:50:22;94903.53;;;6.45;37.90
21182;BME280;10749;46.296;7.524;2023-04-05T03:52:47;94898.34;;;6.36;38.13
21182;BME280;10749;46.296;7.524;2023-04-05T03:55:12;94903.75;;;6.34;38.34
21182;BME280;10749;46.296;7.524;2023-04-05T03:57:41;94901.66;;;6.38;38.25
21182;BME280;10749;46.296;7.524;2023-04-05T04:00:07;94904.81;;;6.41;38.32
21182;BME280;10749;46.296;7.524;2023-04-05T04:02:41;94906.75;;;6.39;38.36
21182;BME280;10749;46.296;7.524;2023-04-05T04:05:07;94896.19;;;6.31;38.44
21182;BME280;10749;46.296;7.524;2023-04-05T04:07:32;94909.31;;;6.31;38.62
21182;BME280;10749;46.296;7.524;2023-04-05T04:09:57;94904.53;;;6.27;38.69
21182;BME280;10749;46.296;7.524;2023-04-05T04:12:23;94902.72;;;6.27;38.50
21182;BME280;10749;46.296;7.524;2023-04-05T04:14:48;94902.28;;;6.32;38.69
21182;BME280;10749;46.296;7.524;2023-04-05T04:17:28;94905.50;;;6.26;38.72
21182;BME280;10749;46.296;7.524;2023-04-05T04:19:54;94907.16;;;6.27;38.53
21182;BME280;10749;46.296;7.524;2023-04-05T04:22:19;94907.59;;;6.22;38.81
21182;BME280;10749;46.296;7.524;2023-04-05T04:24:45;94898.06;;;6.21;38.71
21182;BME280;10749;46.296;7.524;2023-04-05T04:27:17;94902.34;;;6.22;38.79
21182;BME280;10749;46.296;7.524;2023-04-05T04:29:42;94899.72;;;6.22;38.96
21182;BME280;10749;46.296;7.524;2023-04-05T04:32:14;94895.75;;;6.18;38.69
21182;BME280;10749;46.296;7.524;2023-04-05T04:34:40;94899.97;;;6.11;38.98
21182;BME280;10749;46.296;7.524;2023-04-05T04:37:12;94899.19;;;6.01;38.90
21182;BME280;10749;46.296;7.524;2023-04-05T04:39:44;94905.81;;;5.87;39.08
21182;BME280;10749;46.296;7.524;2023-04-05T04:42:10;94901.94;;;5.82;39.13
21182;BME280;10749;46.296;7.524;2023-04-05T04:44:36;94913.94;;;5.84;39.15
21182;BME280;10749;46.296;7.524;2023-04-05T04:47:01;94914.13;;;5.83;38.99
21182;BME280;10749;46.296;7.524;2023-04-05T04:49:26;94914.53;;;5.88;38.64
21182;BME280;10749;46.296;7.524;2023-04-05T04:51:52;94912.88;;;5.87;38.28
21182;BME280;10749;46.296;7.524;2023-04-05T04:54:17;94918.84;;;5.79;38.57
21182;BME280;10749;46.296;7.524;2023-04-05T04:56:45;94914.47;;;5.70;38.88
21182;BME280;10749;46.296;7.524;2023-04-05T04:59:10;94912.38;;;5.74;38.84
21182;BME280;10749;46.296;7.524;2023-04-05T05:01:36;94912.06;;;5.77;38.52
21182;BME280;10749;46.296;7.524;2023-04-05T05:04:02;94915.31;;;5.71;38.10
21182;BME280;10749;46.296;7.524;2023-04-05T05:06:28;94915.22;;;5.63;38.47
21182;BME280;10749;46.296;7.524;2023-04-05T05:08:54;94920.47;;;5.63;37.91
21182;BME280;10749;46.296;7.524;2023-04-05T05:11:20;94926.31;;;5.56;38.38
21182;BME280;10749;46.296;7.524;2023-04-05T05:13:45;94919.78;;;5.61;38.06
21182;BME280;10749;46.296;7.524;2023-04-05T05:16:11;94918.13;;;5.59;38.38
21182;BME280;10749;46.296;7.524;2023-04-05T05:18:36;94931.25;;;5.59;38.54
21182;BME280;10749;46.296;7.524;2023-04-05T05:21:02;94928.34;;;5.63;38.33
21182;BME280;10749;46.296;7.524;2023-04-05T05:23:27;94927.97;;;5.57;38.80
21182;BME280;10749;46.296;7.524;2023-04-05T05:25:58;94926.00;;;5.59;38.78
21182;BME280;10749;46.296;7.524;2023-04-05T05:28:25;94936.81;;;5.56;39.18
21182;BME280;10749;46.296;7.524;2023-04-05T05:30:51;94927.00;;;5.58;39.22
21182;BME280;10749;46.296;7.524;2023-04-05T05:33:16;94931.94;;;5.62;39.27
21182;BME280;10749;46.296;7.524;2023-04-05T05:35:42;94930.97;;;5.63;39.27
21182;BME280;10749;46.296;7.524;2023-04-05T05:38:08;94930.97;;;5.63;39.25
21182;BME280;10749;46.296;7.524;2023-04-05T05:40:33;94934.25;;;5.65;39.56
21182;BME280;10749;46.296;7.524;2023-04-05T05:42:58;94930.69;;;5.66;39.32
21182;BME280;10749;46.296;7.524;2023-04-05T05:45:23;94928.44;;;5.71;39.43
21182;BME280;10749;46.296;7.524;2023-04-05T05:47:49;94929.78;;;5.75;39.57
21182;BME280;10749;46.296;7.524;2023-04-05T05:50:14;94924.75;;;5.81;39.54
21182;BME280;10749;46.296;7.524;2023-04-05T05:52:41;94924.91;;;5.80;39.35
21182;BME280;10749;46.296;7.524;2023-04-05T05:55:06;94928.91;;;5.84;39.78
21182;BME280;10749;46.296;7.524;2023-04-05T05:57:32;94922.00;;;5.83;39.91
21182;BME280;10749;46.296;7.524;2023-04-05T05:59:58;94924.72;;;5.91;39.81
21182;BME280;10749;46.296;7.524;2023-04-05T06:02:23;94931.03;;;5.98;40.16
21182;BME280;10749;46.296;7.524;2023-04-05T06:04:48;94926.81;;;6.05;39.98
21182;BME280;10749;46.296;7.524;2023-04-05T06:07:14;94939.38;;;6.11;40.00
21182;BME280;10749;46.296;7.524;2023-04-05T06:09:39;94943.03;;;6.18;40.18
21182;BME280;10749;46.296;7.524;2023-04-05T06:12:04;94933.13;;;6.30;40.16
21182;BME280;10749;46.296;7.524;2023-04-05T06:14:30;94934.63;;;6.32;40.16
21182;BME280;10749;46.296;7.524;2023-04-05T06:16:55;94935.09;;;6.45;40.28
21182;BME280;10749;46.296;7.524;2023-04-05T06:19:21;94938.38;;;6.47;40.38
21182;BME280;10749;46.296;7.524;2023-04-05T06:21:46;94935.97;;;6.54;40.51
21182;BME280;10749;46.296;7.524;2023-04-05T06:24:12;94938.50;;;6.64;40.41
21182;BME280;10749;46.296;7.524;2023-04-05T06:26:37;94940.06;;;6.74;40.22
21182;BME280;10749;46.296;7.524;2023-04-05T06:29:02;94930.00;;;6.70;40.88
21182;BME280;10749;46.296;7.524;2023-04-05T06:31:33;94941.09;;;6.81;40.59
21182;BME280;10749;46.296;7.524;2023-04-05T06:33:58;94940.94;;;6.83;40.84
21182;BME280;10749;46.296;7.524;2023-04-05T06:36:24;94952.13;;;6.85;40.85
21182;BME280;10749;46.296;7.524;2023-04-05T06:38:51;94948.72;;;6.92;41.03
21182;BME280;10749;46.296;7.524;2023-04-05T06:41:17;94948.56;;;6.94;41.02
21182;BME280;10749;46.296;7.524;2023-04-05T06:43:42;94946.50;;;7.06;40.82
21182;BME280;10749;46.296;7.524;2023-04-05T06:46:07;94945.06;;;7.11;41.12
21182;BME280;10749;46.296;7.524;2023-04-05T06:48:35;94951.31;;;7.10;41.20
21182;BME280;10749;46.296;7.524;2023-04-05T06:51:02;94941.38;;;7.04;41.34
21182;BME280;10749;46.296;7.524;2023-04-05T06:53:27;94941.38;;;7.04;41.01
21182;BME280;10749;46.296;7.524;2023-04-05T06:55:54;94939.94;;;7.10;41.24
21182;BME280;10749;46.296;7.524;2023-04-05T06:58:19;94936.06;;;7.22;41.29
21182;BME280;10749;46.296;7.524;2023-04-05T07:00:45;94939.59;;;7.38;40.17
21182;BME280;10749;46.296;7.524;2023-04-05T07:03:11;94936.31;;;7.36;40.49
21182;BME280;10749;46.296;7.524;2023-04-05T07:05:36;94935.16;;;7.39;40.61
21182;BME280;10749;46.296;7.524;2023-04-05T07:08:01;94935.03;;;7.49;40.76
21182;BME280;10749;46.296;7.524;2023-04-05T07:10:26;94932.09;;;7.52;40.99
21182;BME280;10749;46.296;7.524;2023-04-05T07:12:52;94935.03;;;7.49;41.24
21182;BME280;10749;46.296;7.524;2023-04-05T07:15:17;94941.16;;;7.57;41.28
21182;BME280;10749;46.296;7.524;2023-04-05T07:17:42;94934.38;;;7.55;41.05
21182;BME280;10749;46.296;7.524;2023-04-05T07:20:08;94940.69;;;7.62;41.15
21182;BME280;10749;46.296;7.524;2023-04-05T07:22:33;94941.34;;;7.64;41.35
21182;BME280;10749;46.296;7.524;2023-04-05T07:25:00;94939.09;;;7.77;41.09
21182;BME280;10749;46.296;7.524;2023-04-05T07:27:25;94939.75;;;7.87;41.40
21182;BME280;10749;46.296;7.524;2023-04-05T07:29:51;94935.19;;;7.97;40.82
21182;BME280;10749;46.296;7.524;2023-04-05T07:32:16;94938.66;;;7.98;41.37
21182;BME280;10749;46.296;7.524;2023-04-05T07:34:42;94939.28;;;8.00;41.05
21182;BME280;10749;46.296;7.524;2023-04-05T07:37:07;94938.81;;;8.04;40.68
21182;BME280;10749;46.296;7.524;2023-04-05T07:39:32;94931.88;;;7.95;41.01
21182;BME280;10749;46.296;7.524;2023-04-05T07:41:58;94939.50;;;8.06;41.04
21182;BME280;10749;46.296;7.524;2023-04-05T07:44:23;94932.72;;;8.12;41.01
21182;BME280;10749;46.296;7.524;2023-04-05T07:46:48;94933.09;;;8.25;41.04
21182;BME280;10749;46.296;7.524;2023-04-05T07:49:15;94938.34;;;8.25;40.70
21182;BME280;10749;46.296;7.524;2023-04-05T07:51:40;94919.09;;;8.32;40.80
21182;BME280;10749;46.296;7.524;2023-04-05T07:54:07;94927.84;;;8.33;40.90
21182;BME280;10749;46.296;7.524;2023-04-05T07:56:32;94923.41;;;8.42;41.02
21182;BME280;10749;46.296;7.524;2023-04-05T07:58:58;94922.75;;;8.48;41.13
21182;BME280;10749;46.296;7.524;2023-04-05T08:01:23;94920.47;;;8.53;41.02
21182;BME280;10749;46.296;7.524;2023-04-05T08:03:53;94920.28;;;8.54;40.99
21182;BME280;10749;46.296;7.524;2023-04-05T08:06:18;94914.16;;;8.62;41.04
21182;BME280;10749;46.296;7.524;2023-04-05T08:08:45;94915.47;;;8.66;40.95
21182;BME280;10749;46.296;7.524;2023-04-05T08:11:10;94918.13;;;8.58;41.21
21182;BME280;10749;46.296;7.524;2023-04-05T08:13:36;94908.88;;;8.62;40.73
21182;BME280;10749;46.296;7.524;2023-04-05T08:16:06;94911.53;;;8.62;41.10
21182;BME280;10749;46.296;7.524;2023-04-05T08:18:31;94912.19;;;8.80;40.58
21182;BME280;10749;46.296;7.524;2023-04-05T08:20:57;94909.53;;;8.88;40.84
21182;BME280;10749;46.296;7.524;2023-04-05T08:23:22;94905.22;;;8.95;41.03
21182;BME280;10749;46.296;7.524;2023-04-05T08:25:48;94904.38;;;8.95;41.03
21182;BME280;10749;46.296;7.524;2023-04-05T08:28:13;94900.28;;;8.92;40.62
21182;BME280;10749;46.296;7.524;2023-04-05T08:30:39;94900.16;;;8.86;41.01
21182;BME280;10749;46.296;7.524;2023-04-05T08:33:05;94902.75;;;8.94;41.09
21182;BME280;10749;46.296;7.524;2023-04-05T08:35:31;94901.75;;;8.95;40.05
21182;BME280;10749;46.296;7.524;2023-04-05T08:37:56;94900.63;;;8.89;40.30
21182;BME280;10749;46.296;7.524;2023-04-05T08:40:25;94889.06;;;8.82;40.70
21182;BME280;10749;46.296;7.524;2023-04-05T08:43:10;94894.06;;;8.77;40.94
21182;BME280;10749;46.296;7.524;2023-04-05T08:45:45;94894.00;;;9.01;40.79
21182;BME280;10749;46.296;7.524;2023-04-05T08:48:11;94886.88;;;9.10;40.88
21182;BME280;10749;46.296;7.524;2023-04-05T08:50:36;94891.47;;;9.16;40.64
21182;BME280;10749;46.296;7.524;2023-04-05T08:53:01;94892.47;;;9.23;40.47
21182;BME280;10749;46.296;7.524;2023-04-05T08:55:27;94893.47;;;9.14;40.70
21182;BME280;10749;46.296;7.524;2023-04-05T08:57:52;94887.66;;;9.26;40.63
21182;BME280;10749;46.296;7.524;2023-04-05T09:00:23;94889.31;;;9.27;40.54
21182;BME280;10749;46.296;7.524;2023-04-05T09:02:53;94891.28;;;9.25;40.66
21182;BME280;10749;46.296;7.524;2023-04-05T09:05:22;94879.00;;;9.41;40.18
21182;BME280;10749;46.296;7.524;2023-04-05T09:07:48;94882.94;;;9.45;39.57
21182;BME280;10749;46.296;7.524;2023-04-05T09:10:14;94877.56;;;9.30;39.94
21182;BME280;10749;46.296;7.524;2023-04-05T09:12:42;94874.84;;;9.46;40.19
21182;BME280;10749;46.296;7.524;2023-04-05T09:15:07;94878.59;;;9.60;40.38
21182;BME280;10749;46.296;7.524;2023-04-05T09:17:33;94875.78;;;9.61;40.26
21182;BME280;10749;46.296;7.524;2023-04-05T09:19:58;94874.66;;;9.56;40.14
21182;BME280;10749;46.296;7.524;2023-04-05T09:22:24;94862.03;;;9.66;39.95
21182;BME280;10749;46.296;7.524;2023-04-05T09:24:49;94865.00;;;9.71;39.84
21182;BME280;10749;46.296;7.524;2023-04-05T09:27:16;94865.47;;;9.74;39.65
21182;BME280;10749;46.296;7.524;2023-04-05T09:29:44;94870.28;;;9.71;39.62
21182;BME280;10749;46.296;7.524;2023-04-05T09:32:11;94868.25;;;9.81;39.68
21182;BME280;10749;46.296;7.524;2023-04-05T09:34:37;94853.63;;;9.93;39.04
21182;BME280;10749;46.296;7.524;2023-04-05T09:37:17;94859.97;;;9.84;38.59
21182;BME280;10749;46.296;7.524;2023-04-05T09:39:44;94868.88;;;9.83;39.04
21182;BME280;10749;46.296;7.524;2023-04-05T09:42:15;94867.03;;;9.92;39.34
21182;BME280;10749;46.296;7.524;2023-04-05T09:44:54;94859.91;;;9.92;39.38
21182;BME280;10749;46.296;7.524;2023-04-05T09:47:25;94856.78;;;10.11;39.51
21182;BME280;10749;46.296;7.524;2023-04-05T09:49:55;94855.56;;;10.30;39.60
21182;BME280;10749;46.296;7.524;2023-04-05T09:52:28;94857.16;;;10.54;39.16
21182;BME280;10749;46.296;7.524;2023-04-05T09:54:57;94849.59;;;10.51;38.95
21182;BME280;10749;46.296;7.524;2023-04-05T09:57:24;94848.38;;;10.39;39.13
21182;BME280;10749;46.296;7.524;2023-04-05T09:59:53;94846.59;;;10.31;38.75
21182;BME280;10749;46.296;7.524;2023-04-05T10:02:21;94844.50;;;10.27;38.38
21182;BME280;10749;46.296;7.524;2023-04-05T10:04:47;94845.13;;;10.29;38.85
21182;BME280;10749;46.296;7.524;2023-04-05T10:07:15;94837.97;;;10.52;38.35
21182;BME280;10749;46.296;7.524;2023-04-05T10:09:42;94833.63;;;10.59;38.64
21182;BME280;10749;46.296;7.524;2023-04-05T10:12:08;94834.53;;;10.66;38.86
21182;BME280;10749;46.296;7.524;2023-04-05T10:14:34;94833.69;;;10.88;38.79
21182;BME280;10749;46.296;7.524;2023-04-05T10:17:15;94827.63;;;10.94;38.71
21182;BME280;10749;46.296;7.524;2023-04-05T10:20:01;94824.28;;;11.00;38.75
21182;BME280;10749;46.296;7.524;2023-04-05T10:28:11;94819.03;;;11.51;38.26
21182;BME280;10749;46.296;7.524;2023-04-05T10:30:46;94820.97;;;11.64;38.26
21182;BME280;10749;46.296;7.524;2023-04-05T10:33:29;94805.34;;;11.69;38.13
21182;BME280;10749;46.296;7.524;2023-04-05T10:36:13;94823.53;;;11.86;38.08
21182;BME280;10749;46.296;7.524;2023-04-05T10:39:41;94812.19;;;11.92;37.85
21182;BME280;10749;46.296;7.524;2023-04-05T10:41:51;94822.06;;;12.05;37.90
21182;BME280;10749;46.296;7.524;2023-04-05T10:44:17;94817.34;;;12.22;38.05
21182;BME280;10749;46.296;7.524;2023-04-05T10:46:44;94811.94;;;12.30;38.03
21182;BME280;10749;46.296;7.524;2023-04-05T10:51:54;94799.53;;;12.37;37.66
21182;BME280;10749;46.296;7.524;2023-04-05T10:54:20;94801.19;;;12.38;37.78
21182;BME280;10749;46.296;7.524;2023-04-05T10:56:46;94794.81;;;12.60;37.74
21182;BME280;10749;46.296;7.524;2023-04-05T10:59:12;94795.31;;;12.70;37.67
21182;BME280;10749;46.296;7.524;2023-04-05T11:01:39;94795.75;;;12.80;37.46
21182;BME280;10749;46.296;7.524;2023-04-05T11:04:12;94790.41;;;12.74;37.53
21182;BME280;10749;46.296;7.524;2023-04-05T11:06:38;94782.06;;;12.49;37.21
21182;BME280;10749;46.296;7.524;2023-04-05T11:09:08;94782.81;;;12.43;37.16
21182;BME280;10749;46.296;7.524;2023-04-05T11:11:38;94782.91;;;12.49;37.14
21182;BME280;10749;46.296;7.524;2023-04-05T11:14:16;94775.75;;;12.50;36.67
21182;BME280;10749;46.296;7.524;2023-04-05T11:16:45;94765.03;;;12.65;37.35
21182;BME280;10749;46.296;7.524;2023-04-05T11:19:11;94767.03;;;12.90;37.22
21182;BME280;10749;46.296;7.524;2023-04-05T11:21:36;94761.88;;;12.82;36.89
21182;BME280;10749;46.296;7.524;2023-04-05T11:24:07;94765.72;;;13.08;36.77
21182;BME280;10749;46.296;7.524;2023-04-05T11:26:52;94748.13;;;13.07;36.31
21182;BME280;10749;46.296;7.524;2023-04-05T11:29:18;94747.63;;;12.96;36.04
21182;BME280;10749;46.296;7.524;2023-04-05T11:31:57;94747.72;;;13.10;36.24
21182;BME280;10749;46.296;7.524;2023-04-05T11:34:23;94743.31;;;13.17;36.03
21182;BME280;10749;46.296;7.524;2023-04-05T11:36:49;94741.47;;;13.24;35.97
21182;BME280;10749;46.296;7.524;2023-04-05T11:41:46;94732.06;;;13.88;36.24
21182;BME280;10749;46.296;7.524;2023-04-05T11:44:15;94739.84;;;13.97;35.98
21182;BME280;10749;46.296;7.524;2023-04-05T11:46:51;94738.25;;;14.35;36.24
21182;BME280;10749;46.296;7.524;2023-04-05T11:49:16;94733.38;;;14.45;35.54
21182;BME280;10749;46.296;7.524;2023-04-05T11:51:42;94737.00;;;14.70;35.67
21182;BME280;10749;46.296;7.524;2023-04-05T11:54:08;94732.47;;;14.91;35.63
21182;BME280;10749;46.296;7.524;2023-04-05T11:56:33;94727.97;;;14.71;35.19
21182;BME280;10749;46.296;7.524;2023-04-05T11:58:59;94729.44;;;14.67;35.39
21182;BME280;10749;46.296;7.524;2023-04-05T12:01:25;94728.16;;;14.90;35.18
21182;BME280;10749;46.296;7.524;2023-04-05T12:03:54;94729.09;;;15.21;35.47
21182;BME280;10749;46.296;7.524;2023-04-05T12:06:24;94726.34;;;15.41;35.10
21182;BME280;10749;46.296;7.524;2023-04-05T12:08:50;94724.53;;;15.80;35.38
21182;BME280;10749;46.296;7.524;2023-04-05T12:11:27;94724.72;;;15.85;35.01
21182;BME280;10749;46.296;7.524;2023-04-05T12:13:57;94719.59;;;16.14;35.34
21182;BME280;10749;46.296;7.524;2023-04-05T12:16:23;94723.50;;;16.37;34.74
21182;BME280;10749;46.296;7.524;2023-04-05T12:18:56;94711.03;;;16.06;33.41
21182;BME280;10749;46.296;7.524;2023-04-05T12:21:22;94711.28;;;15.66;32.47
21182;BME280;10749;46.296;7.524;2023-04-05T12:23:51;94703.91;;;15.62;32.30
21182;BME280;10749;46.296;7.524;2023-04-05T12:26:17;94691.81;;;15.91;32.74
21182;BME280;10749;46.296;7.524;2023-04-05T12:28:58;94692.66;;;16.16;32.31
21182;BME280;10749;46.296;7.524;2023-04-05T12:31:44;94698.53;;;16.31;31.96
21182;BME280;10749;46.296;7.524;2023-04-05T12:34:12;94687.59;;;16.33;31.67
21182;BME280;10749;46.296;7.524;2023-04-05T12:36:38;94690.53;;;16.49;32.39
21182;BME280;10749;46.296;7.524;2023-04-05T12:39:08;94683.91;;;16.58;32.33
21182;BME280;10749;46.296;7.524;2023-04-05T12:41:34;94681.97;;;16.66;32.56
21182;BME280;10749;46.296;7.524;2023-04-05T12:44:05;94684.28;;;16.37;32.21
21182;BME280;10749;46.296;7.524;2023-04-05T12:46:40;94673.59;;;15.56;30.71
21182;BME280;10749;46.296;7.524;2023-04-05T12:49:06;94674.50;;;15.24;30.98
21182;BME280;10749;46.296;7.524;2023-04-05T12:51:34;94677.13;;;14.93;30.75
21182;BME280;10749;46.296;7.524;2023-04-05T12:54:00;94664.09;;;14.58;30.85
21182;BME280;10749;46.296;7.524;2023-04-05T12:56:27;94664.31;;;14.44;30.41
21182;BME280;10749;46.296;7.524;2023-04-05T12:58:54;94662.03;;;14.60;30.66
21182;BME280;10749;46.296;7.524;2023-04-05T13:01:19;94646.78;;;14.87;30.34
21182;BME280;10749;46.296;7.524;2023-04-05T13:03:46;94658.53;;;15.24;30.41
21182;BME280;10749;46.296;7.524;2023-04-05T13:06:11;94659.91;;;15.33;30.50
21182;BME280;10749;46.296;7.524;2023-04-05T13:08:37;94652.22;;;15.12;29.87
21182;BME280;10749;46.296;7.524;2023-04-05T13:11:02;94645.75;;;14.95;30.05
21182;BME280;10749;46.296;7.524;2023-04-05T13:13:27;94645.56;;;14.90;30.37
21182;BME280;10749;46.296;7.524;2023-04-05T13:15:52;94636.69;;;15.02;30.23
21182;BME280;10749;46.296;7.524;2023-04-05T13:18:18;94642.19;;;15.14;30.35
21182;BME280;10749;46.296;7.524;2023-04-05T13:20:44;94635.84;;;15.46;30.52
21182;BME280;10749;46.296;7.524;2023-04-05T13:23:10;94633.94;;;15.22;29.69
21182;BME280;10749;46.296;7.524;2023-04-05T13:25:41;94625.13;;;15.59;29.25
21182;BME280;10749;46.296;7.524;2023-04-05T13:28:08;94624.34;;;15.84;28.98
21182;BME280;10749;46.296;7.524;2023-04-05T13:30:33;94630.28;;;15.86;29.39
21182;BME280;10749;46.296;7.524;2023-04-05T13:32:59;94618.16;;;15.58;28.55